sensor_id;sensor_type;location;lat;lon;timestamp;P1;durP1;ratioP1;P2;durP2;ratioP2
42430;SDS011;28070;47.462;19.036;2022-08-19T00:01:45;13.20;;;9.60;;
42430;SDS011;28070;47.462;19.036;2022-08-19T00:04:19;13.90;;;8.52;;
42430;SDS011;28070;47.462;19.036;2022-08-19T00:06:49;11.82;;;8.45;;
42430;SDS011;28070;47.462;19.036;2022-08-19T00:09:18;12.65;;;8.10;;
42430;SDS011;28070;47.462;19.036;2022-08-19T00:11:48;10.30;;;7.68;;
42430;SDS011;28070;47.462;19.036;2022-08-19T00:14:17;9.27;;;7.90;;
42430;SDS011;28070;47.462;19.036;2022-08-19T00:16:48;12.50;;;8.57;;
42430;SDS011;28070;47.462;19.036;2022-08-19T00:19:17;12.90;;;8.20;;
42430;SDS011;28070;47.462;19.036;2022-08-19T00:21:45;13.02;;;8.68;;
42430;SDS011;28070;47.462;19.036;2022-08-19T00:24:14;10.82;;;8.50;;
42430;SDS011;28070;47.462;19.036;2022-08-19T00:26:43;13.13;;;7.93;;
42430;SDS011;28070;47.462;19.036;2022-08-19T00:29:13;10.95;;;7.82;;
42430;SDS011;28070;47.462;19.036;2022-08-19T00:31:45;11.35;;;8.52;;
42430;SDS011;28070;47.462;19.036;2022-08-19T00:34:17;11.98;;;8.48;;
42430;SDS011;28070;47.462;19.036;2022-08-19T00:36:48;13.30;;;7.95;;
42430;SDS011;28070;47.462;19.036;2022-08-19T00:39:16;12.30;;;8.00;;
42430;SDS011;28070;47.462;19.036;2022-08-19T00:41:45;13.93;;;8.38;;
42430;SDS011;28070;47.462;19.036;2022-08-19T00:44:16;12.65;;;8.15;;
42430;SDS011;28070;47.462;19.036;2022-08-19T00:46:53;11.45;;;7.97;;
42430;SDS011;28070;47.462;19.036;2022-08-19T00:49:28;10.20;;;8.27;;
42430;SDS011;28070;47.462;19.036;2022-08-19T00:52:00;9.73;;;8.32;;
42430;SDS011;28070;47.462;19.036;2022-08-19T00:54:32;9.82;;;7.75;;
42430;SDS011;28070;47.462;19.036;2022-08-19T00:57:00;13.32;;;8.23;;
42430;SDS011;28070;47.462;19.036;2022-08-19T00:59:29;11.63;;;8.10;;
42430;SDS011;28070;47.462;19.036;2022-08-19T01:02:17;10.50;;;8.13;;
42430;SDS011;28070;47.462;19.036;2022-08-19T01:04:47;9.70;;;8.02;;
42430;SDS011;28070;47.462;19.036;2022-08-19T01:07:16;13.18;;;8.57;;
42430;SDS011;28070;47.462;19.036;2022-08-19T01:09:45;14.90;;;8.27;;
42430;SDS011;28070;47.462;19.036;2022-08-19T01:12:14;12.68;;;8.43;;
42430;SDS011;28070;47.462;19.036;2022-08-19T01:14:43;10.32;;;8.55;;
42430;SDS011;28070;47.462;19.036;2022-08-19T01:17:12;12.15;;;8.45;;
42430;SDS011;28070;47.462;19.036;2022-08-19T01:19:43;13.73;;;9.00;;
42430;SDS011;28070;47.462;19.036;2022-08-19T01:22:16;10.90;;;8.30;;
42430;SDS011;28070;47.462;19.036;2022-08-19T01:24:59;10.70;;;8.43;;
42430;SDS011;28070;47.462;19.036;2022-08-19T01:27:36;11.95;;;8.77;;
42430;SDS011;28070;47.462;19.036;2022-08-19T01:30:10;11.68;;;8.60;;
42430;SDS011;28070;47.462;19.036;2022-08-19T01:32:40;10.32;;;8.13;;
42430;SDS011;28070;47.462;19.036;2022-08-19T01:35:10;10.40;;;8.32;;
42430;SDS011;28070;47.462;19.036;2022-08-19T01:37:47;10.45;;;9.07;;
42430;SDS011;28070;47.462;19.036;2022-08-19T01:40:20;14.68;;;8.55;;
42430;SDS011;28070;47.462;19.036;2022-08-19T01:42:50;9.30;;;8.35;;
42430;SDS011;28070;47.462;19.036;2022-08-19T01:45:21;13.88;;;8.55;;
42430;SDS011;28070;47.462;19.036;2022-08-19T01:47:51;10.90;;;8.55;;
42430;SDS011;28070;47.462;19.036;2022-08-19T01:50:28;11.75;;;8.95;;
42430;SDS011;28070;47.462;19.036;2022-08-19T01:52:56;10.60;;;8.65;;
42430;SDS011;28070;47.462;19.036;2022-08-19T01:55:33;12.55;;;8.23;;
42430;SDS011;28070;47.462;19.036;2022-08-19T01:58:11;11.43;;;8.75;;
42430;SDS011;28070;47.462;19.036;2022-08-19T02:00:41;10.15;;;8.77;;
42430;SDS011;28070;47.462;19.036;2022-08-19T02:03:11;10.77;;;8.20;;
42430;SDS011;28070;47.462;19.036;2022-08-19T02:05:40;10.48;;;8.45;;
42430;SDS011;28070;47.462;19.036;2022-08-19T02:08:09;13.07;;;8.82;;
42430;SDS011;28070;47.462;19.036;2022-08-19T02:10:40;10.55;;;8.52;;
42430;SDS011;28070;47.462;19.036;2022-08-19T02:13:10;10.52;;;8.07;;
42430;SDS011;28070;47.462;19.036;2022-08-19T02:15:40;11.38;;;8.25;;
42430;SDS011;28070;47.462;19.036;2022-08-19T02:18:08;11.73;;;8.13;;
42430;SDS011;28070;47.462;19.036;2022-08-19T02:20:37;11.18;;;8.60;;
42430;SDS011;28070;47.462;19.036;2022-08-19T02:23:07;11.30;;;8.20;;
42430;SDS011;28070;47.462;19.036;2022-08-19T02:25:41;12.27;;;8.85;;
42430;SDS011;28070;47.462;19.036;2022-08-19T02:28:10;11.15;;;8.50;;
42430;SDS011;28070;47.462;19.036;2022-08-19T02:30:44;13.00;;;9.20;;
42430;SDS011;28070;47.462;19.036;2022-08-19T02:33:13;13.32;;;8.45;;
42430;SDS011;28070;47.462;19.036;2022-08-19T02:35:41;10.85;;;8.55;;
42430;SDS011;28070;47.462;19.036;2022-08-19T02:38:10;13.50;;;8.65;;
42430;SDS011;28070;47.462;19.036;2022-08-19T02:40:56;11.48;;;8.85;;
42430;SDS011;28070;47.462;19.036;2022-08-19T02:43:27;14.18;;;9.10;;
42430;SDS011;28070;47.462;19.036;2022-08-19T02:45:59;13.45;;;9.70;;
42430;SDS011;28070;47.462;19.036;2022-08-19T02:48:27;10.00;;;8.60;;
42430;SDS011;28070;47.462;19.036;2022-08-19T02:50:56;14.43;;;9.05;;
42430;SDS011;28070;47.462;19.036;2022-08-19T02:53:26;11.38;;;8.98;;
42430;SDS011;28070;47.462;19.036;2022-08-19T02:55:56;12.98;;;8.45;;
42430;SDS011;28070;47.462;19.036;2022-08-19T02:58:25;11.32;;;8.63;;
42430;SDS011;28070;47.462;19.036;2022-08-19T03:00:54;12.52;;;8.80;;
42430;SDS011;28070;47.462;19.036;2022-08-19T03:03:24;14.25;;;9.02;;
42430;SDS011;28070;47.462;19.036;2022-08-19T03:06:02;11.70;;;9.20;;
42430;SDS011;28070;47.462;19.036;2022-08-19T03:08:31;12.65;;;9.38;;
42430;SDS011;28070;47.462;19.036;2022-08-19T03:11:01;11.63;;;9.02;;
42430;SDS011;28070;47.462;19.036;2022-08-19T03:13:29;12.32;;;9.07;;
42430;SDS011;28070;47.462;19.036;2022-08-19T03:15:57;13.43;;;9.40;;
42430;SDS011;28070;47.462;19.036;2022-08-19T03:18:25;14.55;;;9.57;;
42430;SDS011;28070;47.462;19.036;2022-08-19T03:20:53;15.45;;;9.60;;
42430;SDS011;28070;47.462;19.036;2022-08-19T03:23:22;13.80;;;8.93;;
42430;SDS011;28070;47.462;19.036;2022-08-19T03:25:51;12.15;;;9.73;;
42430;SDS011;28070;47.462;19.036;2022-08-19T03:28:42;13.82;;;8.88;;
42430;SDS011;28070;47.462;19.036;2022-08-19T03:31:18;12.95;;;9.48;;
42430;SDS011;28070;47.462;19.036;2022-08-19T03:34:09;14.23;;;9.93;;
42430;SDS011;28070;47.462;19.036;2022-08-19T03:36:38;12.35;;;9.10;;
42430;SDS011;28070;47.462;19.036;2022-08-19T03:39:07;12.48;;;9.05;;
42430;SDS011;28070;47.462;19.036;2022-08-19T03:41:38;18.67;;;10.43;;
42430;SDS011;28070;47.462;19.036;2022-08-19T03:44:12;14.32;;;9.60;;
42430;SDS011;28070;47.462;19.036;2022-08-19T03:46:44;12.90;;;9.20;;
42430;SDS011;28070;47.462;19.036;2022-08-19T03:49:12;12.82;;;9.65;;
42430;SDS011;28070;47.462;19.036;2022-08-19T03:51:43;15.73;;;9.52;;
42430;SDS011;28070;47.462;19.036;2022-08-19T03:54:12;11.75;;;9.23;;
42430;SDS011;28070;47.462;19.036;2022-08-19T03:56:43;12.10;;;9.20;;
42430;SDS011;28070;47.462;19.036;2022-08-19T03:59:15;13.60;;;9.45;;
42430;SDS011;28070;47.462;19.036;2022-08-19T04:01:46;12.20;;;9.38;;
42430;SDS011;28070;47.462;19.036;2022-08-19T04:04:14;10.93;;;9.82;;
42430;SDS011;28070;47.462;19.036;2022-08-19T04:06:45;15.90;;;9.70;;
42430;SDS011;28070;47.462;19.036;2022-08-19T04:09:14;11.52;;;9.45;;
42430;SDS011;28070;47.462;19.036;2022-08-19T04:11:44;12.73;;;9.57;;
42430;SDS011;28070;47.462;19.036;2022-08-19T04:14:16;17.83;;;11.50;;
42430;SDS011;28070;47.462;19.036;2022-08-19T04:16:46;14.70;;;9.45;;
42430;SDS011;28070;47.462;19.036;2022-08-19T04:19:16;15.52;;;9.68;;
42430;SDS011;28070;47.462;19.036;2022-08-19T04:21:47;15.25;;;9.73;;
42430;SDS011;28070;47.462;19.036;2022-08-19T04:24:17;11.45;;;9.32;;
42430;SDS011;28070;47.462;19.036;2022-08-19T04:26:47;10.63;;;9.10;;
42430;SDS011;28070;47.462;19.036;2022-08-19T04:29:18;11.82;;;9.10;;
42430;SDS011;28070;47.462;19.036;2022-08-19T04:31:51;13.27;;;9.73;;
42430;SDS011;28070;47.462;19.036;2022-08-19T04:34:22;13.10;;;9.18;;
42430;SDS011;28070;47.462;19.036;2022-08-19T04:36:52;12.85;;;9.57;;
42430;SDS011;28070;47.462;19.036;2022-08-19T04:39:22;10.82;;;8.95;;
42430;SDS011;28070;47.462;19.036;2022-08-19T04:42:12;14.35;;;9.15;;
42430;SDS011;28070;47.462;19.036;2022-08-19T04:45:01;13.07;;;9.75;;
42430;SDS011;28070;47.462;19.036;2022-08-19T04:47:34;13.23;;;9.35;;
42430;SDS011;28070;47.462;19.036;2022-08-19T04:50:16;13.27;;;10.35;;
42430;SDS011;28070;47.462;19.036;2022-08-19T04:52:45;16.45;;;10.30;;
42430;SDS011;28070;47.462;19.036;2022-08-19T04:55:13;12.38;;;10.90;;
42430;SDS011;28070;47.462;19.036;2022-08-19T04:57:41;16.05;;;11.52;;
42430;SDS011;28070;47.462;19.036;2022-08-19T05:00:11;14.18;;;10.50;;
42430;SDS011;28070;47.462;19.036;2022-08-19T05:02:40;14.00;;;10.43;;
42430;SDS011;28070;47.462;19.036;2022-08-19T05:05:08;12.80;;;10.20;;
42430;SDS011;28070;47.462;19.036;2022-08-19T05:07:36;16.98;;;12.00;;
42430;SDS011;28070;47.462;19.036;2022-08-19T05:10:06;17.13;;;12.10;;
42430;SDS011;28070;47.462;19.036;2022-08-19T05:12:35;18.85;;;12.18;;
42430;SDS011;28070;47.462;19.036;2022-08-19T05:15:04;10.95;;;9.82;;
42430;SDS011;28070;47.462;19.036;2022-08-19T05:17:36;15.10;;;10.65;;
42430;SDS011;28070;47.462;19.036;2022-08-19T05:20:06;14.80;;;8.98;;
42430;SDS011;28070;47.462;19.036;2022-08-19T05:22:52;10.45;;;8.95;;
42430;SDS011;28070;47.462;19.036;2022-08-19T05:25:21;12.18;;;9.55;;
42430;SDS011;28070;47.462;19.036;2022-08-19T05:27:52;13.73;;;9.13;;
42430;SDS011;28070;47.462;19.036;2022-08-19T05:30:20;15.18;;;9.40;;
42430;SDS011;28070;47.462;19.036;2022-08-19T05:33:09;12.32;;;8.93;;
42430;SDS011;28070;47.462;19.036;2022-08-19T05:35:38;15.02;;;9.35;;
42430;SDS011;28070;47.462;19.036;2022-08-19T05:38:07;20.67;;;18.33;;
42430;SDS011;28070;47.462;19.036;2022-08-19T05:40:35;21.42;;;15.75;;
42430;SDS011;28070;47.462;19.036;2022-08-19T05:43:05;19.88;;;15.60;;
42430;SDS011;28070;47.462;19.036;2022-08-19T05:45:37;17.58;;;9.73;;
42430;SDS011;28070;47.462;19.036;2022-08-19T05:48:09;14.43;;;9.55;;
42430;SDS011;28070;47.462;19.036;2022-08-19T05:50:38;12.05;;;8.57;;
42430;SDS011;28070;47.462;19.036;2022-08-19T05:53:07;16.95;;;9.25;;
42430;SDS011;28070;47.462;19.036;2022-08-19T05:55:36;14.13;;;9.07;;
42430;SDS011;28070;47.462;19.036;2022-08-19T05:58:06;14.20;;;9.30;;
42430;SDS011;28070;47.462;19.036;2022-08-19T06:00:34;13.15;;;9.13;;
42430;SDS011;28070;47.462;19.036;2022-08-19T06:03:03;18.48;;;12.50;;
42430;SDS011;28070;47.462;19.036;2022-08-19T06:05:40;21.48;;;15.18;;
42430;SDS011;28070;47.462;19.036;2022-08-19T06:08:18;16.58;;;9.90;;
42430;SDS011;28070;47.462;19.036;2022-08-19T06:11:13;14.45;;;9.10;;
42430;SDS011;28070;47.462;19.036;2022-08-19T06:13:44;14.55;;;9.23;;
42430;SDS011;28070;47.462;19.036;2022-08-19T06:16:17;15.98;;;11.55;;
42430;SDS011;28070;47.462;19.036;2022-08-19T06:18:49;14.75;;;11.00;;
42430;SDS011;28070;47.462;19.036;2022-08-19T06:21:21;11.50;;;8.73;;
42430;SDS011;28070;47.462;19.036;2022-08-19T06:23:50;15.45;;;10.23;;
42430;SDS011;28070;47.462;19.036;2022-08-19T06:26:19;20.05;;;14.82;;
42430;SDS011;28070;47.462;19.036;2022-08-19T06:28:48;13.60;;;8.88;;
42430;SDS011;28070;47.462;19.036;2022-08-19T06:31:17;10.80;;;8.23;;
42430;SDS011;28070;47.462;19.036;2022-08-19T06:33:47;15.55;;;9.98;;
42430;SDS011;28070;47.462;19.036;2022-08-19T06:36:17;13.23;;;7.78;;
42430;SDS011;28070;47.462;19.036;2022-08-19T06:38:51;13.45;;;8.07;;
42430;SDS011;28070;47.462;19.036;2022-08-19T06:41:20;11.20;;;8.00;;
42430;SDS011;28070;47.462;19.036;2022-08-19T06:43:48;14.73;;;7.93;;
42430;SDS011;28070;47.462;19.036;2022-08-19T06:46:21;11.18;;;7.35;;
42430;SDS011;28070;47.462;19.036;2022-08-19T06:48:50;11.93;;;7.65;;
42430;SDS011;28070;47.462;19.036;2022-08-19T06:51:20;17.45;;;7.60;;
42430;SDS011;28070;47.462;19.036;2022-08-19T06:53:53;11.82;;;7.38;;
42430;SDS011;28070;47.462;19.036;2022-08-19T06:56:23;15.20;;;7.78;;
42430;SDS011;28070;47.462;19.036;2022-08-19T06:58:57;18.02;;;9.50;;
42430;SDS011;28070;47.462;19.036;2022-08-19T07:01:26;12.60;;;7.88;;
42430;SDS011;28070;47.462;19.036;2022-08-19T07:03:54;11.90;;;6.82;;
42430;SDS011;28070;47.462;19.036;2022-08-19T07:06:23;11.40;;;6.93;;
42430;SDS011;28070;47.462;19.036;2022-08-19T07:09:11;12.05;;;7.38;;
42430;SDS011;28070;47.462;19.036;2022-08-19T07:11:44;15.48;;;7.55;;
42430;SDS011;28070;47.462;19.036;2022-08-19T07:14:17;14.13;;;8.53;;
42430;SDS011;28070;47.462;19.036;2022-08-19T07:16:47;16.65;;;13.38;;
42430;SDS011;28070;47.462;19.036;2022-08-19T07:19:18;16.52;;;8.10;;
42430;SDS011;28070;47.462;19.036;2022-08-19T07:21:48;11.48;;;7.97;;
42430;SDS011;28070;47.462;19.036;2022-08-19T07:24:21;13.27;;;7.30;;
42430;SDS011;28070;47.462;19.036;2022-08-19T07:26:52;10.45;;;6.93;;
42430;SDS011;28070;47.462;19.036;2022-08-19T07:29:21;16.92;;;8.30;;
42430;SDS011;28070;47.462;19.036;2022-08-19T07:31:54;13.48;;;8.23;;
42430;SDS011;28070;47.462;19.036;2022-08-19T07:34:27;22.70;;;16.20;;
42430;SDS011;28070;47.462;19.036;2022-08-19T07:36:56;8.95;;;6.85;;
42430;SDS011;28070;47.462;19.036;2022-08-19T07:39:32;9.45;;;6.85;;
42430;SDS011;28070;47.462;19.036;2022-08-19T07:42:04;15.75;;;7.53;;
42430;SDS011;28070;47.462;19.036;2022-08-19T07:44:34;9.45;;;7.13;;
42430;SDS011;28070;47.462;19.036;2022-08-19T07:47:08;10.68;;;6.63;;
42430;SDS011;28070;47.462;19.036;2022-08-19T07:49:56;17.77;;;8.25;;
42430;SDS011;28070;47.462;19.036;2022-08-19T07:52:24;17.20;;;9.77;;
42430;SDS011;28070;47.462;19.036;2022-08-19T07:54:54;12.68;;;7.38;;
42430;SDS011;28070;47.462;19.036;2022-08-19T07:57:22;8.93;;;6.30;;
42430;SDS011;28070;47.462;19.036;2022-08-19T07:59:50;17.48;;;11.38;;
42430;SDS011;28070;47.462;19.036;2022-08-19T08:02:18;14.63;;;7.35;;
42430;SDS011;28070;47.462;19.036;2022-08-19T08:04:47;12.27;;;7.68;;
42430;SDS011;28070;47.462;19.036;2022-08-19T08:07:32;15.25;;;10.68;;
42430;SDS011;28070;47.462;19.036;2022-08-19T08:10:19;9.73;;;6.63;;
42430;SDS011;28070;47.462;19.036;2022-08-19T08:12:50;13.15;;;6.47;;
42430;SDS011;28070;47.462;19.036;2022-08-19T08:15:36;14.18;;;8.38;;
42430;SDS011;28070;47.462;19.036;2022-08-19T08:18:09;13.45;;;9.43;;
42430;SDS011;28070;47.462;19.036;2022-08-19T08:20:37;14.10;;;9.48;;
42430;SDS011;28070;47.462;19.036;2022-08-19T08:23:06;11.52;;;8.73;;
42430;SDS011;28070;47.462;19.036;2022-08-19T08:25:54;12.88;;;7.40;;
42430;SDS011;28070;47.462;19.036;2022-08-19T08:28:23;13.05;;;7.65;;
42430;SDS011;28070;47.462;19.036;2022-08-19T08:30:55;10.70;;;6.72;;
42430;SDS011;28070;47.462;19.036;2022-08-19T08:33:26;15.77;;;11.05;;
42430;SDS011;28070;47.462;19.036;2022-08-19T08:36:00;11.55;;;8.35;;
42430;SDS011;28070;47.462;19.036;2022-08-19T08:38:32;12.65;;;8.80;;
42430;SDS011;28070;47.462;19.036;2022-08-19T08:41:09;13.23;;;9.60;;
42430;SDS011;28070;47.462;19.036;2022-08-19T08:43:55;13.57;;;8.32;;
42430;SDS011;28070;47.462;19.036;2022-08-19T08:46:25;14.70;;;7.40;;
42430;SDS011;28070;47.462;19.036;2022-08-19T08:49:01;12.32;;;6.90;;
42430;SDS011;28070;47.462;19.036;2022-08-19T08:51:37;9.48;;;6.75;;
42430;SDS011;28070;47.462;19.036;2022-08-19T08:54:13;20.50;;;15.38;;
42430;SDS011;28070;47.462;19.036;2022-08-19T08:56:44;10.77;;;6.53;;
42430;SDS011;28070;47.462;19.036;2022-08-19T08:59:19;12.85;;;7.93;;
42430;SDS011;28070;47.462;19.036;2022-08-19T09:01:50;12.10;;;6.25;;
42430;SDS011;28070;47.462;19.036;2022-08-19T09:04:19;15.10;;;6.63;;
42430;SDS011;28070;47.462;19.036;2022-08-19T09:06:51;11.13;;;6.18;;
42430;SDS011;28070;47.462;19.036;2022-08-19T09:09:26;14.98;;;5.93;;
42430;SDS011;28070;47.462;19.036;2022-08-19T09:12:03;13.05;;;6.38;;
42430;SDS011;28070;47.462;19.036;2022-08-19T09:14:39;8.80;;;5.97;;
42430;SDS011;28070;47.462;19.036;2022-08-19T09:17:17;16.05;;;8.00;;
42430;SDS011;28070;47.462;19.036;2022-08-19T09:19:53;13.95;;;9.07;;
42430;SDS011;28070;47.462;19.036;2022-08-19T09:22:23;13.95;;;10.50;;
42430;SDS011;28070;47.462;19.036;2022-08-19T09:24:53;15.40;;;9.38;;
42430;SDS011;28070;47.462;19.036;2022-08-19T09:27:24;13.23;;;8.75;;
42430;SDS011;28070;47.462;19.036;2022-08-19T09:30:10;14.82;;;6.50;;
42430;SDS011;28070;47.462;19.036;2022-08-19T09:32:41;9.65;;;6.43;;
42430;SDS011;28070;47.462;19.036;2022-08-19T09:35:12;11.05;;;5.80;;
42430;SDS011;28070;47.462;19.036;2022-08-19T09:37:41;12.73;;;5.70;;
42430;SDS011;28070;47.462;19.036;2022-08-19T09:40:10;13.40;;;8.82;;
42430;SDS011;28070;47.462;19.036;2022-08-19T09:42:42;14.90;;;9.35;;
42430;SDS011;28070;47.462;19.036;2022-08-19T09:45:16;14.88;;;9.48;;
42430;SDS011;28070;47.462;19.036;2022-08-19T09:47:48;9.27;;;6.17;;
42430;SDS011;28070;47.462;19.036;2022-08-19T09:50:20;9.43;;;5.60;;
42430;SDS011;28070;47.462;19.036;2022-08-19T09:52:49;10.57;;;5.95;;
42430;SDS011;28070;47.462;19.036;2022-08-19T09:55:24;11.85;;;5.53;;
42430;SDS011;28070;47.462;19.036;2022-08-19T09:58:03;11.25;;;5.78;;
42430;SDS011;28070;47.462;19.036;2022-08-19T10:00:31;11.63;;;5.55;;
42430;SDS011;28070;47.462;19.036;2022-08-19T10:02:59;8.55;;;5.50;;
42430;SDS011;28070;47.462;19.036;2022-08-19T10:05:28;9.90;;;5.30;;
42430;SDS011;28070;47.462;19.036;2022-08-19T10:08:14;12.40;;;5.60;;
42430;SDS011;28070;47.462;19.036;2022-08-19T10:10:46;11.88;;;6.80;;
42430;SDS011;28070;47.462;19.036;2022-08-19T10:13:18;12.82;;;9.25;;
42430;SDS011;28070;47.462;19.036;2022-08-19T10:15:50;21.65;;;13.20;;
42430;SDS011;28070;47.462;19.036;2022-08-19T10:18:21;16.50;;;8.90;;
42430;SDS011;28070;47.462;19.036;2022-08-19T10:20:50;11.25;;;6.72;;
42430;SDS011;28070;47.462;19.036;2022-08-19T10:23:21;10.35;;;5.38;;
42430;SDS011;28070;47.462;19.036;2022-08-19T10:25:49;7.63;;;5.80;;
42430;SDS011;28070;47.462;19.036;2022-08-19T10:28:21;11.73;;;7.50;;
42430;SDS011;28070;47.462;19.036;2022-08-19T10:30:50;14.93;;;10.00;;
42430;SDS011;28070;47.462;19.036;2022-08-19T10:33:19;11.80;;;7.53;;
42430;SDS011;28070;47.462;19.036;2022-08-19T10:36:09;12.02;;;6.07;;
42430;SDS011;28070;47.462;19.036;2022-08-19T10:38:44;12.15;;;5.70;;
42430;SDS011;28070;47.462;19.036;2022-08-19T10:41:22;8.73;;;5.57;;
42430;SDS011;28070;47.462;19.036;2022-08-19T10:43:53;9.20;;;5.10;;
42430;SDS011;28070;47.462;19.036;2022-08-19T10:46:29;7.22;;;5.40;;
42430;SDS011;28070;47.462;19.036;2022-08-19T10:48:59;9.75;;;4.97;;
42430;SDS011;28070;47.462;19.036;2022-08-19T10:51:28;8.68;;;5.05;;
42430;SDS011;28070;47.462;19.036;2022-08-19T10:54:15;7.93;;;5.10;;
42430;SDS011;28070;47.462;19.036;2022-08-19T10:56:57;7.70;;;4.97;;
42430;SDS011;28070;47.462;19.036;2022-08-19T10:59:26;9.52;;;5.18;;
42430;SDS011;28070;47.462;19.036;2022-08-19T11:02:02;11.73;;;5.50;;
42430;SDS011;28070;47.462;19.036;2022-08-19T11:04:32;8.70;;;6.10;;
42430;SDS011;28070;47.462;19.036;2022-08-19T11:07:01;8.35;;;6.13;;
42430;SDS011;28070;47.462;19.036;2022-08-19T11:09:30;11.38;;;5.60;;
42430;SDS011;28070;47.462;19.036;2022-08-19T11:12:00;11.23;;;6.38;;
42430;SDS011;28070;47.462;19.036;2022-08-19T11:14:32;10.50;;;6.53;;
42430;SDS011;28070;47.462;19.036;2022-08-19T11:17:01;8.35;;;5.53;;
42430;SDS011;28070;47.462;19.036;2022-08-19T11:19:30;10.10;;;5.30;;
42430;SDS011;28070;47.462;19.036;2022-08-19T11:21:59;14.40;;;5.82;;
42430;SDS011;28070;47.462;19.036;2022-08-19T11:24:29;8.50;;;5.65;;
42430;SDS011;28070;47.462;19.036;2022-08-19T11:27:03;12.68;;;5.95;;
42430;SDS011;28070;47.462;19.036;2022-08-19T11:29:34;12.02;;;5.50;;
42430;SDS011;28070;47.462;19.036;2022-08-19T11:32:03;8.32;;;6.03;;
42430;SDS011;28070;47.462;19.036;2022-08-19T11:34:33;9.93;;;5.80;;
42430;SDS011;28070;47.462;19.036;2022-08-19T11:37:02;9.32;;;5.72;;
42430;SDS011;28070;47.462;19.036;2022-08-19T11:39:32;12.77;;;5.25;;
42430;SDS011;28070;47.462;19.036;2022-08-19T11:42:03;11.15;;;5.00;;
42430;SDS011;28070;47.462;19.036;2022-08-19T11:44:54;12.25;;;5.28;;
42430;SDS011;28070;47.462;19.036;2022-08-19T11:47:23;10.48;;;5.22;;
42430;SDS011;28070;47.462;19.036;2022-08-19T11:49:52;9.57;;;5.43;;
42430;SDS011;28070;47.462;19.036;2022-08-19T11:52:20;15.80;;;5.80;;
42430;SDS011;28070;47.462;19.036;2022-08-19T11:54:48;13.32;;;5.95;;
42430;SDS011;28070;47.462;19.036;2022-08-19T11:57:17;9.13;;;6.18;;
42430;SDS011;28070;47.462;19.036;2022-08-19T11:59:50;10.93;;;5.28;;
42430;SDS011;28070;47.462;19.036;2022-08-19T12:02:21;11.27;;;6.10;;
42430;SDS011;28070;47.462;19.036;2022-08-19T12:04:49;12.10;;;7.00;;
42430;SDS011;28070;47.462;19.036;2022-08-19T12:07:17;14.95;;;7.88;;
42430;SDS011;28070;47.462;19.036;2022-08-19T12:09:45;15.02;;;8.25;;
42430;SDS011;28070;47.462;19.036;2022-08-19T12:12:14;16.58;;;8.18;;
42430;SDS011;28070;47.462;19.036;2022-08-19T12:14:42;12.68;;;8.00;;
42430;SDS011;28070;47.462;19.036;2022-08-19T12:17:11;11.15;;;7.80;;
42430;SDS011;28070;47.462;19.036;2022-08-19T12:19:41;14.90;;;7.93;;
42430;SDS011;28070;47.462;19.036;2022-08-19T12:22:09;12.20;;;7.80;;
42430;SDS011;28070;47.462;19.036;2022-08-19T12:24:37;12.63;;;7.07;;
42430;SDS011;28070;47.462;19.036;2022-08-19T12:27:05;13.48;;;7.22;;
42430;SDS011;28070;47.462;19.036;2022-08-19T12:29:38;13.20;;;7.20;;
42430;SDS011;28070;47.462;19.036;2022-08-19T12:32:07;10.40;;;7.45;;
42430;SDS011;28070;47.462;19.036;2022-08-19T12:34:37;13.85;;;6.95;;
42430;SDS011;28070;47.462;19.036;2022-08-19T12:37:08;16.33;;;7.85;;
42430;SDS011;28070;47.462;19.036;2022-08-19T12:39:38;15.40;;;7.95;;
42430;SDS011;28070;47.462;19.036;2022-08-19T12:42:09;14.95;;;9.40;;
42430;SDS011;28070;47.462;19.036;2022-08-19T12:44:38;16.20;;;9.43;;
42430;SDS011;28070;47.462;19.036;2022-08-19T12:47:08;22.90;;;9.20;;
42430;SDS011;28070;47.462;19.036;2022-08-19T12:49:38;16.83;;;9.50;;
42430;SDS011;28070;47.462;19.036;2022-08-19T12:52:23;19.38;;;9.77;;
42430;SDS011;28070;47.462;19.036;2022-08-19T12:54:54;14.13;;;9.90;;
42430;SDS011;28070;47.462;19.036;2022-08-19T12:57:24;15.45;;;9.70;;
42430;SDS011;28070;47.462;19.036;2022-08-19T12:59:59;19.38;;;10.68;;
42430;SDS011;28070;47.462;19.036;2022-08-19T13:07:36;19.80;;;10.52;;
42430;SDS011;28070;47.462;19.036;2022-08-19T13:10:05;22.58;;;10.35;;
42430;SDS011;28070;47.462;19.036;2022-08-19T13:12:35;17.38;;;9.27;;
42430;SDS011;28070;47.462;19.036;2022-08-19T13:15:04;16.75;;;8.00;;
42430;SDS011;28070;47.462;19.036;2022-08-19T13:17:37;15.35;;;5.05;;
42430;SDS011;28070;47.462;19.036;2022-08-19T13:20:06;10.18;;;4.20;;
42430;SDS011;28070;47.462;19.036;2022-08-19T13:22:37;10.35;;;3.95;;
42430;SDS011;28070;47.462;19.036;2022-08-19T13:25:06;13.68;;;4.80;;
42430;SDS011;28070;47.462;19.036;2022-08-19T13:27:36;12.93;;;4.05;;
42430;SDS011;28070;47.462;19.036;2022-08-19T13:30:05;15.43;;;4.32;;
42430;SDS011;28070;47.462;19.036;2022-08-19T13:32:53;13.30;;;4.20;;
42430;SDS011;28070;47.462;19.036;2022-08-19T13:35:43;13.57;;;4.22;;
42430;SDS011;28070;47.462;19.036;2022-08-19T13:38:15;14.18;;;4.32;;
42430;SDS011;28070;47.462;19.036;2022-08-19T13:40:47;12.02;;;4.10;;
42430;SDS011;28070;47.462;19.036;2022-08-19T13:43:16;15.25;;;4.68;;
42430;SDS011;28070;47.462;19.036;2022-08-19T13:45:49;8.55;;;3.78;;
42430;SDS011;28070;47.462;19.036;2022-08-19T13:48:23;11.93;;;4.30;;
42430;SDS011;28070;47.462;19.036;2022-08-19T13:50:53;13.48;;;4.30;;
42430;SDS011;28070;47.462;19.036;2022-08-19T13:53:23;30.40;;;4.75;;
42430;SDS011;28070;47.462;19.036;2022-08-19T13:55:51;33.40;;;4.57;;
42430;SDS011;28070;47.462;19.036;2022-08-19T13:58:20;37.67;;;5.20;;
42430;SDS011;28070;47.462;19.036;2022-08-19T14:00:49;38.53;;;5.13;;
42430;SDS011;28070;47.462;19.036;2022-08-19T14:03:17;37.10;;;5.55;;
42430;SDS011;28070;47.462;19.036;2022-08-19T14:05:45;24.30;;;4.57;;
42430;SDS011;28070;47.462;19.036;2022-08-19T14:08:14;21.50;;;4.53;;
42430;SDS011;28070;47.462;19.036;2022-08-19T14:10:43;22.13;;;4.60;;
42430;SDS011;28070;47.462;19.036;2022-08-19T14:13:13;28.80;;;4.93;;
42430;SDS011;28070;47.462;19.036;2022-08-19T14:15:42;14.15;;;4.28;;
42430;SDS011;28070;47.462;19.036;2022-08-19T14:18:11;22.63;;;4.20;;
42430;SDS011;28070;47.462;19.036;2022-08-19T14:20:39;13.05;;;4.25;;
42430;SDS011;28070;47.462;19.036;2022-08-19T14:23:07;19.70;;;4.13;;
42430;SDS011;28070;47.462;19.036;2022-08-19T14:25:37;18.55;;;4.60;;
42430;SDS011;28070;47.462;19.036;2022-08-19T14:28:06;15.27;;;4.20;;
42430;SDS011;28070;47.462;19.036;2022-08-19T14:30:35;17.73;;;4.70;;
42430;SDS011;28070;47.462;19.036;2022-08-19T14:33:05;24.17;;;4.55;;
42430;SDS011;28070;47.462;19.036;2022-08-19T14:35:34;13.32;;;3.88;;
42430;SDS011;28070;47.462;19.036;2022-08-19T14:38:03;14.73;;;4.22;;
42430;SDS011;28070;47.462;19.036;2022-08-19T14:40:33;17.80;;;4.07;;
42430;SDS011;28070;47.462;19.036;2022-08-19T14:43:02;23.27;;;4.40;;
42430;SDS011;28070;47.462;19.036;2022-08-19T14:45:34;16.10;;;4.32;;
42430;SDS011;28070;47.462;19.036;2022-08-19T14:48:07;15.40;;;3.60;;
42430;SDS011;28070;47.462;19.036;2022-08-19T14:50:46;31.10;;;4.35;;
42430;SDS011;28070;47.462;19.036;2022-08-19T14:53:15;29.05;;;3.83;;